createdAt,value
2018-03-31T00:00:59.179Z,4.40
2018-03-31T00:03:26.960Z,4.30
2018-03-31T00:05:54.768Z,4.30
2018-03-31T00:08:23.297Z,4.40
2018-03-31T00:10:51.081Z,4.30
2018-03-31T00:13:18.938Z,4.30
2018-03-31T00:15:46.836Z,4.30
2018-03-31T00:18:15.354Z,4.40
2018-03-31T00:20:43.149Z,4.30
2018-03-31T00:23:10.919Z,4.20
2018-03-31T00:25:38.745Z,4.40
2018-03-31T00:28:06.532Z,4.30
2018-03-31T00:30:34.300Z,4.20
2018-03-31T00:33:02.186Z,4.10
2018-03-31T00:35:30.053Z,4.10
2018-03-31T00:37:57.867Z,4.10
2018-03-31T00:40:25.677Z,4.00
2018-03-31T00:42:53.572Z,4.00
2018-03-31T00:45:21.353Z,4.10
2018-03-31T00:47:50.008Z,4.00
2018-03-31T00:50:17.771Z,4.00
2018-03-31T00:52:45.593Z,4.10
2018-03-31T00:55:13.404Z,4.10
2018-03-31T00:57:41.167Z,4.00
2018-03-31T01:00:09.046Z,4.10
2018-03-31T01:02:36.798Z,4.00
2018-03-31T01:05:04.687Z,3.80
2018-03-31T01:07:33.246Z,3.90
2018-03-31T01:10:01.027Z,3.90
2018-03-31T01:12:28.804Z,4.00
2018-03-31T01:14:56.604Z,4.00
2018-03-31T01:17:24.388Z,4.00
2018-03-31T01:19:52.175Z,4.00
2018-03-31T01:22:20.049Z,4.00
2018-03-31T01:24:47.849Z,3.90
2018-03-31T01:27:16.428Z,3.80
2018-03-31T01:29:45.706Z,3.80
2018-03-31T01:32:13.486Z,3.70
2018-03-31T01:34:42.033Z,3.70
2018-03-31T01:37:09.851Z,3.70
2018-03-31T01:39:38.371Z,3.60
2018-03-31T01:42:06.366Z,3.60
2018-03-31T01:44:34.131Z,3.60
2018-03-31T01:47:01.937Z,3.60
2018-03-31T01:49:30.480Z,3.70
2018-03-31T01:51:58.271Z,3.70
2018-03-31T01:54:26.840Z,3.80
2018-03-31T01:56:54.700Z,3.80
2018-03-31T01:59:22.579Z,3.80
2018-03-31T02:01:50.365Z,3.80
2018-03-31T02:04:18.946Z,3.90
2018-03-31T02:06:47.483Z,3.80
2018-03-31T02:09:15.312Z,3.80
2018-03-31T02:11:43.225Z,3.80
2018-03-31T02:14:11.089Z,3.80
2018-03-31T02:16:38.876Z,3.70
2018-03-31T02:19:06.710Z,3.80
2018-03-31T02:21:34.576Z,3.60
2018-03-31T02:24:02.362Z,3.60
2018-03-31T02:26:30.896Z,3.70
2018-03-31T02:28:58.721Z,3.70
2018-03-31T02:31:27.254Z,3.50
2018-03-31T02:33:55.037Z,3.50
2018-03-31T02:36:22.828Z,3.60
2018-03-31T02:38:52.107Z,3.70
2018-03-31T02:41:19.995Z,3.70
2018-03-31T02:43:48.532Z,3.40
2018-03-31T02:46:16.324Z,3.40
2018-03-31T02:48:44.091Z,3.30
2018-03-31T02:51:11.951Z,3.10
2018-03-31T02:53:39.717Z,3.10
2018-03-31T02:56:07.694Z,3.10
2018-03-31T02:58:35.565Z,3.10
2018-03-31T03:01:03.534Z,3.10
2018-03-31T03:03:31.299Z,3.20
2018-03-31T03:05:59.168Z,3.30
2018-03-31T03:08:26.973Z,3.00
2018-03-31T03:10:55.512Z,3.00
2018-03-31T03:13:23.307Z,3.00
2018-03-31T03:15:51.861Z,2.90
2018-03-31T03:18:19.653Z,2.90
2018-03-31T03:20:48.213Z,2.90
2018-03-31T03:23:17.603Z,3.00
2018-03-31T03:25:45.392Z,2.90
2018-03-31T03:28:13.187Z,2.90
2018-03-31T03:30:41.717Z,3.20
2018-03-31T03:33:09.593Z,3.20
2018-03-31T03:35:37.462Z,3.20
2018-03-31T03:38:05.328Z,3.10
2018-03-31T03:40:33.198Z,3.10
2018-03-31T03:43:00.984Z,3.10
2018-03-31T03:45:29.650Z,3.30
2018-03-31T03:47:57.521Z,3.30
2018-03-31T03:50:25.319Z,3.30
2018-03-31T03:52:53.859Z,3.20
2018-03-31T03:55:21.707Z,3.20
2018-03-31T03:57:49.481Z,3.20
2018-03-31T04:00:17.366Z,3.20
2018-03-31T04:02:45.244Z,3.30
2018-03-31T04:05:13.052Z,3.30
2018-03-31T04:07:40.813Z,3.00
2018-03-31T04:10:08.579Z,2.90
2018-03-31T04:12:36.384Z,3.00
2018-03-31T04:15:04.165Z,2.70
2018-03-31T04:17:31.955Z,3.10
2018-03-31T04:19:59.720Z,3.30
2018-03-31T04:22:28.277Z,3.40
2018-03-31T04:24:56.045Z,3.30
2018-03-31T04:27:23.829Z,3.40
2018-03-31T04:29:52.389Z,3.30
2018-03-31T04:32:20.182Z,3.30
2018-03-31T04:34:47.965Z,3.20
2018-03-31T04:37:16.547Z,3.40
2018-03-31T04:39:45.190Z,3.30
2018-03-31T04:42:12.971Z,3.30
2018-03-31T04:44:40.751Z,3.20
2018-03-31T04:47:09.314Z,3.40
2018-03-31T04:49:37.104Z,3.40
2018-03-31T04:52:05.637Z,3.40
2018-03-31T04:54:33.415Z,3.40
2018-03-31T04:57:01.202Z,3.40
2018-03-31T04:59:29.772Z,3.60
2018-03-31T05:01:57.530Z,3.60
2018-03-31T05:04:25.353Z,3.70
2018-03-31T05:06:53.870Z,3.80
2018-03-31T05:09:21.661Z,3.70
2018-03-31T05:11:49.444Z,3.80
2018-03-31T05:14:18.100Z,3.60
2018-03-31T05:16:45.976Z,3.60
2018-03-31T05:19:13.779Z,3.60
2018-03-31T05:21:42.420Z,3.50
2018-03-31T05:24:10.225Z,3.50
2018-03-31T05:26:38.064Z,3.40
2018-03-31T05:29:05.836Z,3.50
2018-03-31T05:31:41.368Z,3.60
2018-03-31T05:34:09.146Z,3.60
2018-03-31T05:36:36.989Z,3.70
2018-03-31T05:39:04.970Z,3.60
2018-03-31T05:41:32.838Z,3.70
2018-03-31T05:44:00.624Z,3.70
2018-03-31T05:46:29.289Z,3.90
2018-03-31T05:48:57.066Z,3.90
2018-03-31T05:51:24.864Z,4.00
2018-03-31T05:53:53.402Z,4.20
2018-03-31T05:56:21.229Z,4.20
2018-03-31T05:58:49.004Z,4.30
2018-03-31T06:01:16.800Z,4.40
2018-03-31T06:03:44.575Z,4.40
2018-03-31T06:06:12.343Z,4.10
2018-03-31T06:08:40.210Z,4.20
2018-03-31T06:11:08.062Z,4.40
2018-03-31T06:13:35.884Z,4.40
2018-03-31T06:16:03.669Z,4.40
2018-03-31T06:18:31.446Z,4.20
2018-03-31T06:20:59.212Z,4.20
2018-03-31T06:23:27.098Z,4.40
2018-03-31T06:25:54.879Z,4.20
2018-03-31T06:28:23.651Z,4.20
2018-03-31T06:30:51.414Z,4.20
2018-03-31T06:33:19.180Z,4.10
2018-03-31T06:35:47.053Z,4.20
2018-03-31T06:38:14.825Z,4.30
2018-03-31T06:40:42.611Z,4.40
2018-03-31T06:43:11.152Z,4.10
2018-03-31T06:45:38.935Z,4.00
2018-03-31T06:48:06.897Z,4.00
2018-03-31T06:50:34.765Z,4.10
2018-03-31T06:53:02.536Z,4.20
2018-03-31T06:55:30.364Z,4.30
2018-03-31T06:57:58.164Z,4.30
2018-03-31T07:00:25.940Z,4.30
2018-03-31T07:02:55.241Z,4.60
2018-03-31T07:05:23.017Z,4.70
2018-03-31T07:07:50.857Z,4.70
2018-03-31T07:10:18.740Z,4.70
2018-03-31T07:12:46.564Z,4.80
2018-03-31T07:15:14.337Z,4.70
2018-03-31T07:17:42.237Z,4.80
2018-03-31T07:20:10.096Z,4.90
2018-03-31T07:22:37.979Z,4.90
2018-03-31T07:25:06.528Z,4.90
2018-03-31T07:27:34.415Z,4.90
2018-03-31T07:30:02.386Z,4.90
2018-03-31T07:32:30.189Z,4.70
2018-03-31T07:34:58.730Z,4.60
2018-03-31T07:37:26.512Z,4.60
2018-03-31T07:39:55.107Z,4.70
2018-03-31T07:42:22.895Z,4.80
2018-03-31T07:44:50.676Z,4.60
2018-03-31T07:47:18.552Z,4.70
2018-03-31T07:49:46.349Z,4.90
2018-03-31T07:52:14.164Z,4.90
2018-03-31T07:54:41.935Z,5.00
2018-03-31T07:57:09.742Z,5.00
2018-03-31T07:59:37.536Z,5.00
2018-03-31T08:02:06.077Z,5.00
2018-03-31T08:04:33.966Z,4.90
2018-03-31T08:07:01.732Z,4.90
2018-03-31T08:09:29.598Z,5.00
2018-03-31T08:11:57.383Z,5.00
2018-03-31T08:14:25.182Z,5.20
2018-03-31T08:16:52.999Z,5.10
2018-03-31T08:19:20.781Z,5.20
2018-03-31T08:21:48.642Z,5.20
2018-03-31T08:24:16.409Z,5.10
2018-03-31T08:26:44.965Z,4.90
2018-03-31T08:29:12.849Z,4.90
2018-03-31T08:31:40.625Z,4.90
2018-03-31T08:34:09.924Z,4.70
2018-03-31T08:36:38.599Z,4.80
2018-03-31T08:39:06.366Z,4.80
2018-03-31T08:41:34.355Z,4.90
2018-03-31T08:44:03.645Z,4.90
2018-03-31T08:46:31.429Z,4.80
2018-03-31T08:49:00.000Z,5.00
2018-03-31T08:51:28.093Z,5.00
2018-03-31T08:53:56.165Z,5.10
2018-03-31T08:56:24.238Z,5.30
2018-03-31T08:58:52.059Z,5.30
2018-03-31T09:01:19.830Z,5.50
2018-03-31T09:03:47.738Z,5.50
2018-03-31T09:06:15.508Z,5.60
2018-03-31T09:08:43.284Z,5.50
2018-03-31T09:11:11.052Z,5.70
2018-03-31T09:13:38.856Z,5.70
2018-03-31T09:16:06.649Z,5.70
2018-03-31T09:18:34.453Z,5.90
2018-03-31T09:21:02.226Z,5.90
2018-03-31T09:23:30.778Z,5.90
2018-03-31T09:25:58.579Z,5.90
2018-03-31T09:28:27.180Z,6.00
2018-03-31T09:30:54.998Z,6.00
2018-03-31T09:33:22.803Z,5.90
2018-03-31T09:35:51.378Z,6.00
2018-03-31T09:38:20.034Z,6.10
2018-03-31T09:40:47.903Z,6.10
2018-03-31T09:43:15.770Z,6.00
2018-03-31T09:45:43.590Z,6.00
2018-03-31T09:48:11.368Z,6.00
2018-03-31T09:50:39.239Z,6.20
2018-03-31T09:53:07.136Z,6.20
2018-03-31T09:55:34.924Z,6.40
2018-03-31T09:58:02.704Z,6.60
2018-03-31T10:00:35.327Z,6.60
2018-03-31T10:03:03.124Z,6.60
2018-03-31T10:05:30.930Z,6.60
2018-03-31T10:07:58.752Z,6.70
2018-03-31T10:10:26.549Z,6.70
2018-03-31T10:12:54.387Z,6.60
2018-03-31T10:15:22.235Z,6.70
2018-03-31T10:17:50.096Z,6.60
2018-03-31T10:20:17.974Z,6.40
2018-03-31T10:22:45.758Z,6.40
2018-03-31T10:25:13.519Z,6.40
2018-03-31T10:27:41.319Z,6.40
2018-03-31T10:30:09.140Z,6.40
2018-03-31T10:32:37.709Z,6.40
2018-03-31T10:35:05.480Z,6.40
2018-03-31T10:37:33.283Z,6.10
2018-03-31T10:40:01.870Z,5.70
2018-03-31T10:42:30.404Z,5.70
2018-03-31T10:44:58.203Z,5.60
2018-03-31T10:47:26.760Z,5.90
2018-03-31T10:49:54.635Z,5.80
2018-03-31T10:52:22.467Z,5.80
2018-03-31T10:54:51.000Z,5.90
2018-03-31T10:57:19.577Z,6.00
2018-03-31T10:59:47.361Z,6.00
2018-03-31T11:02:15.924Z,6.20
2018-03-31T11:04:43.735Z,6.20
2018-03-31T11:07:12.276Z,6.40
2018-03-31T11:09:40.099Z,6.40
2018-03-31T11:12:07.872Z,6.30
2018-03-31T11:14:35.681Z,6.10
2018-03-31T11:17:04.245Z,6.20
2018-03-31T11:19:32.059Z,6.20
2018-03-31T11:21:59.835Z,6.20
2018-03-31T11:24:28.363Z,6.50
2018-03-31T11:26:56.226Z,6.50
2018-03-31T11:29:24.000Z,6.70
2018-03-31T11:31:51.870Z,6.70
2018-03-31T11:34:19.632Z,6.60
2018-03-31T11:36:47.408Z,6.70
2018-03-31T11:39:15.973Z,6.80
2018-03-31T11:41:43.760Z,6.80
2018-03-31T11:44:12.430Z,6.80
2018-03-31T11:46:40.297Z,6.80
2018-03-31T11:49:08.101Z,6.90
2018-03-31T11:51:35.874Z,6.80
2018-03-31T11:54:04.491Z,6.80
2018-03-31T11:56:32.271Z,6.80
2018-03-31T11:59:00.251Z,6.80
2018-03-31T12:01:28.118Z,7.00
2018-03-31T12:03:55.932Z,7.00
2018-03-31T12:06:23.708Z,6.80
2018-03-31T12:08:51.481Z,6.90
2018-03-31T12:11:19.268Z,6.70
2018-03-31T12:13:47.148Z,6.90
2018-03-31T12:16:14.913Z,6.90
2018-03-31T12:18:42.798Z,6.80
2018-03-31T12:21:12.073Z,6.60
2018-03-31T12:23:39.866Z,6.60
2018-03-31T12:26:07.636Z,6.70
2018-03-31T12:28:35.581Z,6.70
2018-03-31T12:31:03.380Z,6.80
2018-03-31T12:33:31.936Z,7.10
2018-03-31T12:35:59.712Z,7.00
2018-03-31T12:38:29.004Z,6.80
2018-03-31T12:40:56.868Z,6.80
2018-03-31T12:43:24.735Z,6.90
2018-03-31T12:45:52.602Z,6.90
2018-03-31T12:48:20.466Z,6.90
2018-03-31T12:50:48.329Z,7.10
2018-03-31T12:53:16.129Z,7.00
2018-03-31T12:55:44.699Z,7.30
2018-03-31T12:58:13.977Z,7.20
2018-03-31T13:00:41.854Z,7.30
2018-03-31T13:03:09.722Z,7.20
2018-03-31T13:05:37.495Z,7.30
2018-03-31T13:08:06.893Z,7.50
2018-03-31T13:10:34.723Z,7.60
2018-03-31T13:13:02.522Z,7.60
2018-03-31T13:15:30.310Z,7.60
2018-03-31T13:17:58.101Z,7.60
2018-03-31T13:20:26.654Z,7.40
2018-03-31T13:22:54.468Z,7.40
2018-03-31T13:25:23.082Z,7.50
2018-03-31T13:27:50.869Z,7.50
2018-03-31T13:30:19.439Z,7.80
2018-03-31T13:32:47.202Z,7.80
2018-03-31T13:35:14.989Z,7.80
2018-03-31T13:37:42.857Z,7.70
2018-03-31T13:40:10.644Z,7.80
2018-03-31T13:42:39.185Z,7.60
2018-03-31T13:45:06.979Z,7.60
2018-03-31T13:47:35.540Z,7.80
2018-03-31T13:50:03.348Z,7.80
2018-03-31T13:52:31.884Z,7.80
2018-03-31T13:54:59.664Z,7.80
2018-03-31T13:57:27.428Z,7.70
2018-03-31T13:59:55.287Z,7.60
2018-03-31T14:02:23.060Z,7.50
2018-03-31T14:04:50.847Z,7.40
2018-03-31T14:07:19.508Z,7.30
2018-03-31T14:09:47.289Z,7.30
2018-03-31T14:12:15.828Z,7.00
2018-03-31T14:14:43.626Z,7.00
2018-03-31T14:17:12.913Z,6.90
2018-03-31T14:19:40.784Z,6.90
2018-03-31T14:22:08.548Z,6.90
2018-03-31T14:24:36.340Z,6.90
2018-03-31T14:27:04.268Z,6.90
2018-03-31T14:29:32.039Z,6.90
2018-03-31T14:32:00.609Z,6.90
2018-03-31T14:34:28.436Z,6.90
2018-03-31T14:36:56.196Z,6.90
2018-03-31T14:39:24.016Z,6.80
2018-03-31T14:41:51.781Z,6.90
2018-03-31T14:44:19.749Z,7.00
2018-03-31T14:46:47.508Z,7.10
2018-03-31T14:49:15.307Z,7.10
2018-03-31T14:51:43.864Z,7.30
2018-03-31T14:54:11.723Z,7.20
2018-03-31T14:56:39.600Z,7.40
2018-03-31T14:59:07.363Z,7.30
2018-03-31T15:01:35.244Z,7.40
2018-03-31T15:04:03.808Z,7.40
2018-03-31T15:06:31.583Z,7.40
2018-03-31T15:08:59.357Z,7.30
2018-03-31T15:11:28.029Z,7.10
2018-03-31T15:13:56.001Z,7.10
2018-03-31T15:16:24.587Z,7.20
2018-03-31T15:18:52.360Z,7.30
2018-03-31T15:21:20.153Z,7.40
2018-03-31T15:23:48.701Z,7.60
2018-03-31T15:26:16.504Z,7.50
2018-03-31T15:28:45.039Z,7.60
2018-03-31T15:31:12.820Z,7.50
2018-03-31T15:33:40.602Z,7.50
2018-03-31T15:36:08.406Z,7.60
2018-03-31T15:38:36.186Z,7.60
2018-03-31T15:41:03.990Z,7.60
2018-03-31T15:43:32.523Z,7.60
2018-03-31T15:46:00.340Z,7.60
2018-03-31T15:48:28.890Z,7.50
2018-03-31T15:50:56.675Z,7.50
2018-03-31T15:53:24.455Z,7.50
2018-03-31T15:55:52.245Z,7.50
2018-03-31T15:58:21.039Z,7.30
2018-03-31T16:00:49.584Z,7.40
2018-03-31T16:03:17.350Z,7.30
2018-03-31T16:05:45.133Z,7.40
2018-03-31T16:08:12.902Z,7.30
2018-03-31T16:10:41.585Z,7.20
2018-03-31T16:13:10.861Z,7.30
2018-03-31T16:15:38.654Z,7.30
2018-03-31T16:18:06.599Z,7.20
2018-03-31T16:20:34.371Z,7.30
2018-03-31T16:23:02.336Z,7.10
2018-03-31T16:25:30.127Z,7.20
2018-03-31T16:27:58.676Z,7.00
2018-03-31T16:30:26.553Z,6.90
2018-03-31T16:32:54.316Z,6.90
2018-03-31T16:35:22.193Z,6.90
2018-03-31T16:37:49.986Z,6.80
2018-03-31T16:40:17.758Z,6.90
2018-03-31T16:42:46.503Z,6.80
2018-03-31T16:45:14.261Z,6.70
2018-03-31T16:47:42.084Z,6.80
2018-03-31T16:50:09.900Z,6.80
2018-03-31T16:52:37.692Z,6.90
2018-03-31T16:55:06.239Z,6.90
2018-03-31T16:57:34.015Z,6.90
2018-03-31T17:00:01.787Z,6.90
2018-03-31T17:02:29.579Z,6.90
2018-03-31T17:04:57.360Z,7.00
2018-03-31T17:07:25.142Z,6.90
2018-03-31T17:09:52.969Z,6.90
2018-03-31T17:12:20.708Z,6.80
2018-03-31T17:14:48.493Z,6.70
2018-03-31T17:17:16.275Z,6.80
2018-03-31T17:19:44.048Z,6.80
2018-03-31T17:22:11.949Z,6.80
2018-03-31T17:24:40.492Z,6.80
2018-03-31T17:27:08.290Z,6.80
2018-03-31T17:29:36.063Z,6.80
2018-03-31T17:32:04.632Z,6.80
2018-03-31T17:34:32.460Z,6.70
2018-03-31T17:37:00.328Z,6.80
2018-03-31T17:39:28.092Z,6.60
2018-03-31T17:41:55.885Z,6.70
2018-03-31T17:44:23.676Z,6.60
2018-03-31T17:46:52.208Z,6.60
2018-03-31T17:49:20.105Z,6.50
2018-03-31T17:51:47.866Z,6.60
2018-03-31T17:54:15.668Z,6.60
2018-03-31T17:56:44.317Z,6.50
2018-03-31T17:59:12.201Z,6.50
2018-03-31T18:01:39.972Z,6.50
2018-03-31T18:04:07.761Z,6.60
2018-03-31T18:06:35.532Z,6.40
2018-03-31T18:09:03.310Z,6.40
2018-03-31T18:11:31.115Z,6.40
2018-03-31T18:13:58.984Z,6.60
2018-03-31T18:16:26.772Z,6.70
2018-03-31T18:18:55.329Z,6.80
2018-03-31T18:21:23.194Z,6.80
2018-03-31T18:23:51.168Z,6.90
2018-03-31T18:26:18.943Z,6.80
2018-03-31T18:28:48.232Z,6.70
2018-03-31T18:31:16.103Z,6.70
2018-03-31T18:33:43.864Z,6.60
2018-03-31T18:36:11.678Z,6.60
2018-03-31T18:38:39.462Z,6.50
2018-03-31T18:41:07.241Z,6.50
2018-03-31T18:43:35.125Z,6.30
2018-03-31T18:46:03.011Z,6.10
2018-03-31T18:48:30.796Z,5.90
2018-03-31T18:50:59.360Z,5.90
2018-03-31T18:53:27.157Z,5.90
2018-03-31T18:55:54.989Z,5.90
2018-03-31T18:58:23.545Z,5.70
2018-03-31T19:00:51.432Z,5.70
2018-03-31T19:03:19.372Z,5.60
2018-03-31T19:05:47.157Z,5.60
2018-03-31T19:08:14.943Z,5.60
2018-03-31T19:10:44.242Z,5.50
2018-03-31T19:13:12.097Z,5.50
2018-03-31T19:15:39.886Z,5.50
2018-03-31T19:18:07.651Z,5.40
2018-03-31T19:20:36.233Z,5.30
2018-03-31T19:23:04.812Z,5.30
2018-03-31T19:25:35.268Z,5.20
2018-03-31T19:28:03.926Z,5.20
2018-03-31T19:30:37.337Z,5.20
2018-03-31T19:33:05.168Z,5.30
2018-03-31T19:35:38.625Z,5.30
2018-03-31T19:38:06.548Z,5.20
2018-03-31T19:40:34.418Z,5.20
2018-03-31T19:43:03.002Z,5.10
2018-03-31T19:45:32.391Z,5.00
2018-03-31T19:48:01.713Z,5.00
2018-03-31T19:50:30.276Z,4.90
2018-03-31T19:52:58.149Z,4.90
2018-03-31T19:55:25.928Z,4.80
2018-03-31T19:57:54.631Z,4.90
2018-03-31T20:00:22.415Z,4.90
2018-03-31T20:02:50.213Z,5.10
2018-03-31T20:05:17.989Z,5.10
2018-03-31T20:07:45.962Z,5.00
2018-03-31T20:10:13.728Z,4.90
2018-03-31T20:12:41.522Z,4.80
2018-03-31T20:15:10.085Z,4.70
2018-03-31T20:17:37.902Z,4.60
2018-03-31T20:20:05.682Z,4.60
2018-03-31T20:22:33.448Z,4.60
2018-03-31T20:25:01.446Z,4.60
2018-03-31T20:27:29.206Z,4.70
2018-03-31T20:29:56.999Z,4.70
2018-03-31T20:32:25.548Z,4.60
2018-03-31T20:34:53.367Z,4.60
2018-03-31T20:37:21.921Z,4.40
2018-03-31T20:39:49.721Z,4.40
2018-03-31T20:42:17.506Z,4.40
2018-03-31T20:44:45.322Z,4.30
2018-03-31T20:47:13.864Z,4.20
2018-03-31T20:49:41.643Z,4.20
2018-03-31T20:52:09.449Z,4.10
2018-03-31T20:54:37.217Z,4.10
2018-03-31T20:57:05.790Z,4.00
2018-03-31T20:59:35.080Z,3.90
2018-03-31T21:02:02.894Z,3.90
2018-03-31T21:04:30.673Z,3.90
2018-03-31T21:06:58.570Z,3.90
2018-03-31T21:09:26.357Z,4.00
2018-03-31T21:11:54.205Z,4.00
2018-03-31T21:14:21.985Z,4.00
2018-03-31T21:16:50.528Z,4.20
2018-03-31T21:19:18.433Z,4.20
2018-03-31T21:21:46.974Z,4.00
2018-03-31T21:24:14.765Z,4.00
2018-03-31T21:26:42.649Z,4.00
2018-03-31T21:29:11.196Z,3.90
2018-03-31T21:31:38.991Z,3.90
2018-03-31T21:34:06.852Z,3.80
2018-03-31T21:36:34.731Z,3.70
2018-03-31T21:39:02.527Z,3.70
2018-03-31T21:41:30.308Z,3.60
2018-03-31T21:43:58.171Z,3.60
2018-03-31T21:46:26.723Z,3.40
2018-03-31T21:48:54.497Z,3.40
2018-03-31T21:51:23.047Z,3.30
2018-03-31T21:53:50.838Z,3.30
2018-03-31T21:56:19.403Z,3.30
2018-03-31T21:58:47.191Z,3.30
2018-03-31T22:01:15.744Z,3.40
2018-03-31T22:03:43.631Z,3.30
2018-03-31T22:06:12.203Z,3.30
2018-03-31T22:08:40.077Z,3.30
2018-03-31T22:11:07.873Z,3.30
2018-03-31T22:13:42.760Z,3.30
2018-03-31T22:16:10.637Z,3.30
2018-03-31T22:18:38.510Z,3.30
2018-03-31T22:21:06.312Z,3.30
2018-03-31T22:23:34.848Z,3.50
2018-03-31T22:26:02.650Z,3.50
2018-03-31T22:28:31.235Z,3.20
2018-03-31T22:30:59.786Z,3.20
2018-03-31T22:33:27.565Z,3.20
2018-03-31T22:35:55.369Z,3.20
2018-03-31T22:38:23.152Z,3.20
2018-03-31T22:40:50.925Z,3.20
2018-03-31T22:43:18.806Z,3.10
2018-03-31T22:45:46.588Z,3.00
2018-03-31T22:48:14.384Z,3.00
2018-03-31T22:50:42.923Z,2.90
2018-03-31T22:53:10.729Z,2.90
2018-03-31T22:55:39.272Z,2.80
2018-03-31T22:58:07.059Z,2.80
2018-03-31T23:00:34.841Z,2.70
2018-03-31T23:03:03.410Z,2.60
2018-03-31T23:05:31.410Z,2.60
2018-03-31T23:07:59.144Z,2.70
2018-03-31T23:10:26.935Z,2.60
2018-03-31T23:12:55.493Z,2.70
2018-03-31T23:15:23.295Z,2.70
2018-03-31T23:17:51.069Z,2.70
2018-03-31T23:20:18.865Z,2.50
2018-03-31T23:22:46.636Z,2.40
2018-03-31T23:25:14.504Z,2.40
2018-03-31T23:27:42.376Z,2.30
2018-03-31T23:30:10.176Z,2.30
2018-03-31T23:32:38.712Z,2.30
2018-03-31T23:35:06.521Z,2.20
2018-03-31T23:37:34.462Z,2.20
2018-03-31T23:40:02.227Z,2.20
2018-03-31T23:42:30.022Z,2.20
2018-03-31T23:44:58.552Z,2.20
2018-03-31T23:47:26.340Z,2.20
2018-03-31T23:49:54.110Z,2.20
2018-03-31T23:52:21.896Z,2.20
2018-03-31T23:54:50.436Z,2.10
2018-03-31T23:57:18.268Z,2.10
2018-03-31T23:59:46.812Z,2.00
